Pagrindinis puslapis
METAR-TAF:

METAR-TAF

Oro uostai :

Fort McPherson, Šiaurės Vakarai, Kanada

platuma: 67-24N, ilguma: 134-51W, Aukštis: 43 m

Dabartinis oras

Ataskaita buvo paskelbta 11 valandos ir 38 minutes, ne 23:00 UTC
Vėjas 8 kt iš Šiaurės/Šiaurės Vakarų su gūsio iki 15 kt, svyruoja nuo Vakarų ir Šiaurės
Temperatūra 15°C
Drėgmė 31%
Slėgis 1016 hPa
Matomumas: 56.3 km
Mažai debesys ne aukštis 4200 ft

METAR: CZFM 042300Z 34008G15KT 270V010 35SM FEW042 15/M02 A3001 RMK CU1 CU TR LAST OBS/NXT 051300Z SLP166

Laikas: 04:38 (10:38 UTC)

Prognozė

Ataskaita buvo paskelbta 16 valandos ir 0 minutes, ne 18:38 UTC
Prognozė galioja nuo 04 metu 19 UTC su 04 metu 23 UTC
Vėjas 8 kt iš Šiaurės
Matomumas: 10 km
Mažai debesys ne aukštis 8000 ft

TAF: CZFM 041838Z 0419/0423 01008KT P6SM FEW080 RMK NXT FCST WILL BE ISSUED AT 051445Z

Orai ataskaitas ir orų prognozės (METAR, TAF).

turimą stotys yra geltonos ir raudonos taškus žemėlapyje.

Perkelti pele per norėdami pamatyti stoties vardą.

Tada spustelėkite, norėdami matyti oro stebėjimo ir prognozės.

Norėdami pakeisti žemėlapį: spustelėkite ant žalios mygtukų su juodo kryžiaus žemyn,; žalią mygtuką su brūkšneliu, jei norite nutolinti; arba žalių rodyklių gretimoms žemėlapius.


METAR-TAF: